sensor_id;sensor_type;location;lat;lon;timestamp;pressure;altitude;pressure_sealevel;temperature;humidity
43119;BME280;28729;49.838;8.650;2023-04-22T00:00:46;99117.63;;;11.83;100.00
43119;BME280;28729;49.838;8.650;2023-04-22T00:04:48;99119.56;;;11.82;100.00
43119;BME280;28729;49.838;8.650;2023-04-22T00:08:51;99113.22;;;11.82;100.00
43119;BME280;28729;49.838;8.650;2023-04-22T00:12:53;99109.63;;;11.81;100.00
43119;BME280;28729;49.838;8.650;2023-04-22T00:16:56;99105.75;;;11.82;100.00
43119;BME280;28729;49.838;8.650;2023-04-22T00:20:57;99110.16;;;11.83;100.00
43119;BME280;28729;49.838;8.650;2023-04-22T00:24:59;99104.97;;;11.87;100.00
43119;BME280;28729;49.838;8.650;2023-04-22T00:29:01;99103.03;;;11.88;100.00
43119;BME280;28729;49.838;8.650;2023-04-22T00:33:03;99102.75;;;11.89;100.00
43119;BME280;28729;49.838;8.650;2023-04-22T00:37:05;99087.84;;;11.90;100.00
43119;BME280;28729;49.838;8.650;2023-04-22T00:41:07;99090.63;;;11.90;100.00
43119;BME280;28729;49.838;8.650;2023-04-22T00:45:10;99089.75;;;11.90;100.00
43119;BME280;28729;49.838;8.650;2023-04-22T00:49:12;99088.69;;;11.91;100.00
43119;BME280;28729;49.838;8.650;2023-04-22T00:53:16;99097.78;;;11.91;100.00
43119;BME280;28729;49.838;8.650;2023-04-22T00:57:18;99101.66;;;11.90;100.00
43119;BME280;28729;49.838;8.650;2023-04-22T01:01:20;99093.63;;;11.89;100.00
43119;BME280;28729;49.838;8.650;2023-04-22T01:05:23;99089.22;;;11.88;100.00
43119;BME280;28729;49.838;8.650;2023-04-22T01:09:26;99090.84;;;11.83;100.00
43119;BME280;28729;49.838;8.650;2023-04-22T01:13:27;99087.53;;;11.81;100.00
43119;BME280;28729;49.838;8.650;2023-04-22T01:17:31;99085.88;;;11.80;100.00
43119;BME280;28729;49.838;8.650;2023-04-22T01:21:34;99081.75;;;11.78;100.00
43119;BME280;28729;49.838;8.650;2023-04-22T01:25:36;99085.88;;;11.75;100.00
43119;BME280;28729;49.838;8.650;2023-04-22T01:29:38;99079.81;;;11.73;100.00
43119;BME280;28729;49.838;8.650;2023-04-22T01:33:40;99081.19;;;11.71;100.00
43119;BME280;28729;49.838;8.650;2023-04-22T01:37:44;99084.78;;;11.66;100.00
43119;BME280;28729;49.838;8.650;2023-04-22T01:41:47;99075.94;;;11.64;100.00
43119;BME280;28729;49.838;8.650;2023-04-22T01:45:49;99077.56;;;11.60;100.00
43119;BME280;28729;49.838;8.650;2023-04-22T01:49:51;99079.25;;;11.61;100.00
43119;BME280;28729;49.838;8.650;2023-04-22T01:53:53;99075.38;;;11.62;100.00
43119;BME280;28729;49.838;8.650;2023-04-22T01:57:57;99074.81;;;11.65;100.00
43119;BME280;28729;49.838;8.650;2023-04-22T02:01:59;99079.25;;;11.66;100.00
43119;BME280;28729;49.838;8.650;2023-04-22T02:06:01;99083.66;;;11.67;100.00
43119;BME280;28729;49.838;8.650;2023-04-22T02:10:05;99080.91;;;11.67;100.00
43119;BME280;28729;49.838;8.650;2023-04-22T02:14:07;99089.44;;;11.66;100.00
43119;BME280;28729;49.838;8.650;2023-04-22T02:18:10;99093.59;;;11.68;100.00
43119;BME280;28729;49.838;8.650;2023-04-22T02:22:11;99091.94;;;11.67;100.00
43119;BME280;28729;49.838;8.650;2023-04-22T02:26:13;99104.09;;;11.71;100.00
43119;BME280;28729;49.838;8.650;2023-04-22T02:30:15;99102.44;;;11.75;100.00
43119;BME280;28729;49.838;8.650;2023-04-22T02:34:17;99097.47;;;11.82;100.00
43119;BME280;28729;49.838;8.650;2023-04-22T02:38:18;99102.47;;;11.91;100.00
43119;BME280;28729;49.838;8.650;2023-04-22T02:42:20;99091.16;;;11.92;100.00
43119;BME280;28729;49.838;8.650;2023-04-22T02:46:22;99083.69;;;11.93;100.00
43119;BME280;28729;49.838;8.650;2023-04-22T02:50:24;99080.41;;;11.91;100.00
43119;BME280;28729;49.838;8.650;2023-04-22T02:54:26;99083.72;;;11.88;100.00
43119;BME280;28729;49.838;8.650;2023-04-22T02:58:28;99071.50;;;11.83;100.00
43119;BME280;28729;49.838;8.650;2023-04-22T03:02:29;99076.22;;;11.78;100.00
43119;BME280;28729;49.838;8.650;2023-04-22T03:06:52;99082.81;;;11.72;100.00
43119;BME280;28729;49.838;8.650;2023-04-22T03:10:53;99091.38;;;11.65;100.00
43119;BME280;28729;49.838;8.650;2023-04-22T03:14:56;99094.16;;;11.55;100.00
43119;BME280;28729;49.838;8.650;2023-04-22T03:19:01;99097.44;;;11.47;100.00
43119;BME280;28729;49.838;8.650;2023-04-22T03:23:03;99101.84;;;11.37;100.00
43119;BME280;28729;49.838;8.650;2023-04-22T03:27:05;99111.75;;;11.28;100.00
43119;BME280;28729;49.838;8.650;2023-04-22T03:31:07;99109.50;;;11.20;100.00
43119;BME280;28729;49.838;8.650;2023-04-22T03:35:11;99116.38;;;11.12;100.00
43119;BME280;28729;49.838;8.650;2023-04-22T03:39:14;99106.94;;;11.03;100.00
43119;BME280;28729;49.838;8.650;2023-04-22T03:43:17;99103.59;;;10.91;100.00
43119;BME280;28729;49.838;8.650;2023-04-22T03:47:29;99102.47;;;10.82;100.00
43119;BME280;28729;49.838;8.650;2023-04-22T03:51:37;99096.63;;;10.73;100.00
43119;BME280;28729;49.838;8.650;2023-04-22T03:55:44;99096.31;;;10.64;100.00
43119;BME280;28729;49.838;8.650;2023-04-22T03:59:48;99091.06;;;10.58;100.00
43119;BME280;28729;49.838;8.650;2023-04-22T04:03:50;99088.78;;;10.49;100.00
43119;BME280;28729;49.838;8.650;2023-04-22T04:07:54;99090.97;;;10.42;100.00
43119;BME280;28729;49.838;8.650;2023-04-22T04:11:58;99091.75;;;10.38;100.00
43119;BME280;28729;49.838;8.650;2023-04-22T04:16:05;99090.06;;;10.32;100.00
43119;BME280;28729;49.838;8.650;2023-04-22T04:20:11;99077.41;;;10.31;100.00
43119;BME280;28729;49.838;8.650;2023-04-22T04:24:14;99074.66;;;10.31;100.00
43119;BME280;28729;49.838;8.650;2023-04-22T04:28:20;99066.13;;;10.32;100.00
43119;BME280;28729;49.838;8.650;2023-04-22T04:32:22;99064.47;;;10.31;100.00
43119;BME280;28729;49.838;8.650;2023-04-22T04:36:26;99064.47;;;10.31;100.00
43119;BME280;28729;49.838;8.650;2023-04-22T04:40:39;99070.25;;;10.30;100.00
43119;BME280;28729;49.838;8.650;2023-04-22T04:44:46;99071.31;;;10.29;100.00
43119;BME280;28729;49.838;8.650;2023-04-22T04:48:49;99072.16;;;10.29;100.00
43119;BME280;28729;49.838;8.650;2023-04-22T04:52:53;99062.28;;;10.33;100.00
43119;BME280;28729;49.838;8.650;2023-04-22T04:57:03;99056.53;;;10.40;100.00
43119;BME280;28729;49.838;8.650;2023-04-22T05:01:06;99054.09;;;10.48;100.00
43119;BME280;28729;49.838;8.650;2023-04-22T05:05:09;99069.78;;;10.48;100.00
43119;BME280;28729;49.838;8.650;2023-04-22T05:09:13;99064.53;;;10.41;100.00
43119;BME280;28729;49.838;8.650;2023-04-22T05:13:17;99059.84;;;10.42;100.00
43119;BME280;28729;49.838;8.650;2023-04-22T05:17:21;99062.03;;;10.40;100.00
43119;BME280;28729;49.838;8.650;2023-04-22T05:21:23;99064.22;;;10.38;100.00
43119;BME280;28729;49.838;8.650;2023-04-22T05:25:25;99074.69;;;10.36;100.00
43119;BME280;28729;49.838;8.650;2023-04-22T05:29:34;99080.50;;;10.39;100.00
43119;BME280;28729;49.838;8.650;2023-04-22T05:33:37;99079.16;;;10.47;100.00
43119;BME280;28729;49.838;8.650;2023-04-22T05:37:39;99091.63;;;10.60;100.00
43119;BME280;28729;49.838;8.650;2023-04-22T05:41:41;99101.06;;;10.74;100.00
43119;BME280;28729;49.838;8.650;2023-04-22T05:45:47;99098.63;;;10.88;100.00
43119;BME280;28729;49.838;8.650;2023-04-22T05:49:50;99108.34;;;11.06;100.00
43119;BME280;28729;49.838;8.650;2023-04-22T05:54:12;99107.03;;;11.18;100.00
43119;BME280;28729;49.838;8.650;2023-04-22T05:58:14;99107.03;;;11.24;100.00
43119;BME280;28729;49.838;8.650;2023-04-22T06:02:24;99110.59;;;11.24;100.00
43119;BME280;28729;49.838;8.650;2023-04-22T06:06:26;99116.97;;;11.25;100.00
43119;BME280;28729;49.838;8.650;2023-04-22T06:10:28;99119.44;;;11.26;100.00
43119;BME280;28729;49.838;8.650;2023-04-22T06:14:30;99127.44;;;11.23;100.00
43119;BME280;28729;49.838;8.650;2023-04-22T06:18:32;99130.78;;;11.25;100.00
43119;BME280;28729;49.838;8.650;2023-04-22T06:22:35;99133.81;;;11.28;100.00
43119;BME280;28729;49.838;8.650;2023-04-22T06:26:37;99127.19;;;11.34;100.00
43119;BME280;28729;49.838;8.650;2023-04-22T06:30:39;99130.78;;;11.35;100.00
43119;BME280;28729;49.838;8.650;2023-04-22T06:34:41;99134.38;;;11.35;100.00
43119;BME280;28729;49.838;8.650;2023-04-22T06:38:43;99133.28;;;11.36;100.00
43119;BME280;28729;49.838;8.650;2023-04-22T06:42:56;99142.38;;;11.37;100.00
43119;BME280;28729;49.838;8.650;2023-04-22T06:47:15;99129.97;;;11.45;100.00
43119;BME280;28729;49.838;8.650;2023-04-22T06:51:22;99128.88;;;11.51;100.00
43119;BME280;28729;49.838;8.650;2023-04-22T06:55:23;99121.19;;;11.68;100.00
43119;BME280;28729;49.838;8.650;2023-04-22T06:59:25;99130.06;;;11.85;100.00
43119;BME280;28729;49.838;8.650;2023-04-22T07:03:28;99131.47;;;12.08;100.00
43119;BME280;28729;49.838;8.650;2023-04-22T07:07:42;99131.44;;;12.34;100.00
43119;BME280;28729;49.838;8.650;2023-04-22T07:11:52;99127.00;;;12.53;100.00
43119;BME280;28729;49.838;8.650;2023-04-22T07:15:55;99121.69;;;12.83;100.00
43119;BME280;28729;49.838;8.650;2023-04-22T07:19:57;99116.59;;;13.05;100.00
43119;BME280;28729;49.838;8.650;2023-04-22T07:23:58;99117.38;;;13.26;100.00
43119;BME280;28729;49.838;8.650;2023-04-22T07:28:00;99104.78;;;13.54;100.00
43119;BME280;28729;49.838;8.650;2023-04-22T07:32:02;99105.38;;;13.85;100.00
43119;BME280;28729;49.838;8.650;2023-04-22T07:36:04;99100.88;;;14.24;100.00
43119;BME280;28729;49.838;8.650;2023-04-22T07:40:07;99094.63;;;14.71;100.00
43119;BME280;28729;49.838;8.650;2023-04-22T07:44:12;99091.41;;;15.07;100.00
43119;BME280;28729;49.838;8.650;2023-04-22T07:48:17;99090.31;;;15.27;99.26
43119;BME280;28729;49.838;8.650;2023-04-22T07:52:19;99085.25;;;15.53;97.88
43119;BME280;28729;49.838;8.650;2023-04-22T07:56:21;99088.41;;;15.84;95.81
43119;BME280;28729;49.838;8.650;2023-04-22T08:00:23;99088.06;;;16.05;93.75
43119;BME280;28729;49.838;8.650;2023-04-22T08:04:26;99091.06;;;16.08;92.17
43119;BME280;28729;49.838;8.650;2023-04-22T08:08:29;99085.09;;;16.15;90.39
43119;BME280;28729;49.838;8.650;2023-04-22T08:12:30;99088.47;;;16.45;90.09
43119;BME280;28729;49.838;8.650;2023-04-22T08:16:32;99088.84;;;16.84;87.46
43119;BME280;28729;49.838;8.650;2023-04-22T08:20:34;99094.06;;;17.27;84.00
43119;BME280;28729;49.838;8.650;2023-04-22T08:24:36;99095.06;;;17.59;82.55
43119;BME280;28729;49.838;8.650;2023-04-22T08:28:37;99090.28;;;17.96;79.14
43119;BME280;28729;49.838;8.650;2023-04-22T08:32:39;99079.03;;;18.24;77.49
43119;BME280;28729;49.838;8.650;2023-04-22T08:36:41;99080.72;;;18.64;73.25
43119;BME280;28729;49.838;8.650;2023-04-22T08:40:44;99080.41;;;19.06;71.13
43119;BME280;28729;49.838;8.650;2023-04-22T08:44:47;99074.06;;;19.31;68.76
43119;BME280;28729;49.838;8.650;2023-04-22T08:48:50;99075.78;;;19.67;68.87
43119;BME280;28729;49.838;8.650;2023-04-22T08:52:51;99072.34;;;19.96;67.95
43119;BME280;28729;49.838;8.650;2023-04-22T08:56:54;99082.16;;;20.29;66.12
43119;BME280;28729;49.838;8.650;2023-04-22T09:00:56;99077.38;;;20.38;66.15
43119;BME280;28729;49.838;8.650;2023-04-22T09:05:01;99074.25;;;20.31;64.02
43119;BME280;28729;49.838;8.650;2023-04-22T09:09:03;99076.06;;;20.35;63.77
43119;BME280;28729;49.838;8.650;2023-04-22T09:13:05;99073.44;;;20.30;64.28
43119;BME280;28729;49.838;8.650;2023-04-22T09:17:07;99068.97;;;20.38;63.00
43119;BME280;28729;49.838;8.650;2023-04-22T09:21:09;99066.47;;;20.45;63.31
43119;BME280;28729;49.838;8.650;2023-04-22T09:25:29;99064.41;;;20.80;62.02
43119;BME280;28729;49.838;8.650;2023-04-22T09:29:30;99063.16;;;21.28;61.12
43119;BME280;28729;49.838;8.650;2023-04-22T09:33:32;99058.97;;;21.64;59.85
43119;BME280;28729;49.838;8.650;2023-04-22T09:37:34;99062.59;;;21.85;56.32
43119;BME280;28729;49.838;8.650;2023-04-22T09:41:53;99056.97;;;21.85;56.25
43119;BME280;28729;49.838;8.650;2023-04-22T09:45:58;99067.38;;;21.85;56.73
43119;BME280;28729;49.838;8.650;2023-04-22T09:50:03;99057.47;;;21.88;56.39
43119;BME280;28729;49.838;8.650;2023-04-22T09:54:05;99055.91;;;21.78;55.36
43119;BME280;28729;49.838;8.650;2023-04-22T09:58:12;99053.16;;;21.69;55.00
43119;BME280;28729;49.838;8.650;2023-04-22T10:02:15;99050.25;;;21.66;54.55
43119;BME280;28729;49.838;8.650;2023-04-22T10:06:17;99044.34;;;21.79;53.82
43119;BME280;28729;49.838;8.650;2023-04-22T10:10:19;99038.81;;;22.04;53.39
43119;BME280;28729;49.838;8.650;2023-04-22T10:14:21;99030.63;;;22.20;51.75
43119;BME280;28729;49.838;8.650;2023-04-22T10:18:25;99024.97;;;22.53;48.04
43119;BME280;28729;49.838;8.650;2023-04-22T10:22:28;99027.06;;;22.68;44.48
43119;BME280;28729;49.838;8.650;2023-04-22T10:26:40;99022.44;;;22.97;44.80
43119;BME280;28729;49.838;8.650;2023-04-22T10:30:42;99016.44;;;23.35;41.87
43119;BME280;28729;49.838;8.650;2023-04-22T10:34:48;99020.66;;;23.29;40.06
43119;BME280;28729;49.838;8.650;2023-04-22T10:42:57;99028.25;;;23.81;39.48
43119;BME280;28729;49.838;8.650;2023-04-22T10:47:04;99015.28;;;24.05;37.37
43119;BME280;28729;49.838;8.650;2023-04-22T10:55:52;99011.63;;;23.76;36.70
43119;BME280;28729;49.838;8.650;2023-04-22T10:59:56;99006.72;;;23.73;37.27
43119;BME280;28729;49.838;8.650;2023-04-22T11:04:18;99003.59;;;24.19;36.03
43119;BME280;28729;49.838;8.650;2023-04-22T11:08:27;99004.88;;;24.21;35.25
43119;BME280;28729;49.838;8.650;2023-04-22T11:16:45;98999.88;;;25.10;34.03
43119;BME280;28729;49.838;8.650;2023-04-22T11:20:48;99002.34;;;24.95;35.60
43119;BME280;28729;49.838;8.650;2023-04-22T11:24:58;99009.19;;;24.47;35.14
43119;BME280;28729;49.838;8.650;2023-04-22T11:29:00;98990.75;;;24.49;35.95
43119;BME280;28729;49.838;8.650;2023-04-22T11:33:02;98989.66;;;24.86;35.49
43119;BME280;28729;49.838;8.650;2023-04-22T11:37:04;98995.41;;;25.24;35.14
43119;BME280;28729;49.838;8.650;2023-04-22T11:41:05;98990.97;;;25.23;34.38
43119;BME280;28729;49.838;8.650;2023-04-22T11:45:08;98987.16;;;25.51;34.35
43119;BME280;28729;49.838;8.650;2023-04-22T11:49:13;98979.44;;;26.06;33.72
43119;BME280;28729;49.838;8.650;2023-04-22T11:53:17;98984.09;;;26.41;32.44
43119;BME280;28729;49.838;8.650;2023-04-22T11:57:19;98978.59;;;26.48;32.33
43119;BME280;28729;49.838;8.650;2023-04-22T12:01:22;98974.31;;;25.73;33.04
43119;BME280;28729;49.838;8.650;2023-04-22T12:05:35;98977.59;;;25.56;32.80
43119;BME280;28729;49.838;8.650;2023-04-22T12:09:38;98971.38;;;26.28;32.34
43119;BME280;28729;49.838;8.650;2023-04-22T12:13:42;98967.22;;;26.22;32.72
43119;BME280;28729;49.838;8.650;2023-04-22T12:17:49;98957.91;;;25.98;32.99
43119;BME280;28729;49.838;8.650;2023-04-22T12:21:54;98962.13;;;26.50;32.06
43119;BME280;28729;49.838;8.650;2023-04-22T12:25:56;98955.56;;;27.49;30.21
43119;BME280;28729;49.838;8.650;2023-04-22T12:29:58;98948.84;;;27.94;29.86
43119;BME280;28729;49.838;8.650;2023-04-22T12:34:01;98951.47;;;28.51;28.81
43119;BME280;28729;49.838;8.650;2023-04-22T12:38:04;98962.97;;;29.24;27.34
43119;BME280;28729;49.838;8.650;2023-04-22T12:42:06;98960.97;;;29.32;27.60
43119;BME280;28729;49.838;8.650;2023-04-22T12:46:08;98966.28;;;28.37;27.50
43119;BME280;28729;49.838;8.650;2023-04-22T12:50:10;98974.41;;;27.38;29.33
43119;BME280;28729;49.838;8.650;2023-04-22T12:54:12;98962.03;;;26.96;29.60
43119;BME280;28729;49.838;8.650;2023-04-22T12:58:14;98968.66;;;26.35;30.88
43119;BME280;28729;49.838;8.650;2023-04-22T13:02:17;98966.66;;;25.93;31.20
43119;BME280;28729;49.838;8.650;2023-04-22T13:06:19;98968.03;;;25.25;32.02
43119;BME280;28729;49.838;8.650;2023-04-22T13:10:24;98970.22;;;24.49;33.02
43119;BME280;28729;49.838;8.650;2023-04-22T13:14:28;98968.47;;;23.84;33.84
43119;BME280;28729;49.838;8.650;2023-04-22T13:18:30;98972.97;;;23.33;34.88
43119;BME280;28729;49.838;8.650;2023-04-22T13:22:32;98970.91;;;23.05;35.73
43119;BME280;28729;49.838;8.650;2023-04-22T13:26:35;98967.41;;;22.71;35.74
43119;BME280;28729;49.838;8.650;2023-04-22T13:30:38;98976.84;;;22.42;36.21
43119;BME280;28729;49.838;8.650;2023-04-22T13:34:40;98963.91;;;22.04;37.08
43119;BME280;28729;49.838;8.650;2023-04-22T13:38:42;98970.97;;;21.77;37.28
43119;BME280;28729;49.838;8.650;2023-04-22T13:42:43;98973.56;;;21.61;37.61
43119;BME280;28729;49.838;8.650;2023-04-22T13:46:46;98971.16;;;21.39;38.15
43119;BME280;28729;49.838;8.650;2023-04-22T13:50:47;98964.97;;;21.25;38.30
43119;BME280;28729;49.838;8.650;2023-04-22T13:54:49;98972.94;;;21.14;38.58
43119;BME280;28729;49.838;8.650;2023-04-22T13:58:52;98974.84;;;21.01;39.01
43119;BME280;28729;49.838;8.650;2023-04-22T14:02:54;98974.28;;;20.87;39.35
43119;BME280;28729;49.838;8.650;2023-04-22T14:06:57;98989.50;;;20.77;39.65
43119;BME280;28729;49.838;8.650;2023-04-22T14:10:59;98997.97;;;20.60;40.47
43119;BME280;28729;49.838;8.650;2023-04-22T14:15:01;98995.69;;;20.44;41.06
43119;BME280;28729;49.838;8.650;2023-04-22T14:19:02;98993.91;;;20.31;41.69
43119;BME280;28729;49.838;8.650;2023-04-22T14:23:06;98996.75;;;20.22;42.07
43119;BME280;28729;49.838;8.650;2023-04-22T14:27:08;98991.69;;;20.07;41.66
43119;BME280;28729;49.838;8.650;2023-04-22T14:31:12;98999.81;;;19.91;41.03
43119;BME280;28729;49.838;8.650;2023-04-22T14:35:16;99006.38;;;19.78;40.80
43119;BME280;28729;49.838;8.650;2023-04-22T14:39:18;98998.34;;;19.68;40.19
43119;BME280;28729;49.838;8.650;2023-04-22T14:43:20;99007.88;;;19.67;40.29
43119;BME280;28729;49.838;8.650;2023-04-22T14:47:22;98999.97;;;19.69;40.74
43119;BME280;28729;49.838;8.650;2023-04-22T14:51:24;98996.22;;;19.73;41.13
43119;BME280;28729;49.838;8.650;2023-04-22T14:55:26;98997.50;;;19.93;41.95
43119;BME280;28729;49.838;8.650;2023-04-22T14:59:29;99000.13;;;20.45;41.35
43119;BME280;28729;49.838;8.650;2023-04-22T15:03:31;98999.34;;;20.83;40.95
43119;BME280;28729;49.838;8.650;2023-04-22T15:07:36;98997.47;;;20.87;41.31
43119;BME280;28729;49.838;8.650;2023-04-22T15:11:38;99000.69;;;20.77;41.24
43119;BME280;28729;49.838;8.650;2023-04-22T15:15:39;98997.97;;;20.60;42.14
43119;BME280;28729;49.838;8.650;2023-04-22T15:19:42;99006.44;;;20.34;43.16
43119;BME280;28729;49.838;8.650;2023-04-22T15:23:43;99003.22;;;20.06;43.55
43119;BME280;28729;49.838;8.650;2023-04-22T15:27:45;99015.44;;;19.75;43.56
43119;BME280;28729;49.838;8.650;2023-04-22T15:31:48;99005.38;;;19.48;43.89
43119;BME280;28729;49.838;8.650;2023-04-22T15:35:50;99020.84;;;19.28;44.08
43119;BME280;28729;49.838;8.650;2023-04-22T15:39:51;99012.09;;;19.12;44.85
43119;BME280;28729;49.838;8.650;2023-04-22T15:43:53;99012.91;;;19.04;44.92
43119;BME280;28729;49.838;8.650;2023-04-22T15:47:55;99006.47;;;18.95;45.00
43119;BME280;28729;49.838;8.650;2023-04-22T15:51:57;99008.91;;;18.87;45.73
43119;BME280;28729;49.838;8.650;2023-04-22T15:55:59;98997.25;;;18.85;45.67
43119;BME280;28729;49.838;8.650;2023-04-22T16:00:08;98992.66;;;18.81;46.47
43119;BME280;28729;49.838;8.650;2023-04-22T16:04:17;98989.34;;;18.79;47.76
43119;BME280;28729;49.838;8.650;2023-04-22T16:08:19;98989.88;;;18.81;47.68
43119;BME280;28729;49.838;8.650;2023-04-22T16:12:24;98985.28;;;18.85;47.58
43119;BME280;28729;49.838;8.650;2023-04-22T16:16:25;98981.81;;;18.88;47.88
43119;BME280;28729;49.838;8.650;2023-04-22T16:20:28;98983.66;;;19.01;47.73
43119;BME280;28729;49.838;8.650;2023-04-22T16:24:30;98990.56;;;19.12;47.92
43119;BME280;28729;49.838;8.650;2023-04-22T16:28:32;98982.38;;;19.25;47.78
43119;BME280;28729;49.838;8.650;2023-04-22T16:32:33;98979.41;;;19.39;46.62
43119;BME280;28729;49.838;8.650;2023-04-22T16:36:37;98976.47;;;19.52;46.29
43119;BME280;28729;49.838;8.650;2023-04-22T16:40:39;98971.38;;;19.54;45.64
43119;BME280;28729;49.838;8.650;2023-04-22T16:44:41;98973.81;;;19.56;45.70
43119;BME280;28729;49.838;8.650;2023-04-22T16:48:43;98970.22;;;19.55;45.84
43119;BME280;28729;49.838;8.650;2023-04-22T16:52:45;98968.25;;;19.47;45.82
43119;BME280;28729;49.838;8.650;2023-04-22T16:56:46;98966.78;;;19.41;46.51
43119;BME280;28729;49.838;8.650;2023-04-22T17:00:49;98972.19;;;19.29;46.27
43119;BME280;28729;49.838;8.650;2023-04-22T17:04:51;98969.41;;;19.20;46.47
43119;BME280;28729;49.838;8.650;2023-04-22T17:08:53;98974.97;;;19.11;46.45
43119;BME280;28729;49.838;8.650;2023-04-22T17:12:55;98975.63;;;19.08;47.37
43119;BME280;28729;49.838;8.650;2023-04-22T17:16:57;98975.78;;;19.03;47.30
43119;BME280;28729;49.838;8.650;2023-04-22T17:20:58;98974.13;;;18.94;48.25
43119;BME280;28729;49.838;8.650;2023-04-22T17:25:00;98977.22;;;18.83;48.75
43119;BME280;28729;49.838;8.650;2023-04-22T17:29:03;98971.06;;;18.64;48.27
43119;BME280;28729;49.838;8.650;2023-04-22T17:33:04;98977.13;;;18.57;48.85
43119;BME280;28729;49.838;8.650;2023-04-22T17:37:06;98985.63;;;18.52;48.79
43119;BME280;28729;49.838;8.650;2023-04-22T17:41:08;98980.53;;;18.45;48.72
43119;BME280;28729;49.838;8.650;2023-04-22T17:45:10;98970.31;;;18.41;48.30
43119;BME280;28729;49.838;8.650;2023-04-22T17:49:12;98970.50;;;18.36;49.03
43119;BME280;28729;49.838;8.650;2023-04-22T17:53:14;98970.94;;;18.29;49.34
43119;BME280;28729;49.838;8.650;2023-04-22T17:57:15;98974.13;;;18.14;49.67
43119;BME280;28729;49.838;8.650;2023-04-22T18:01:18;98971.81;;;18.07;49.97
43119;BME280;28729;49.838;8.650;2023-04-22T18:05:20;98982.63;;;18.00;50.88
43119;BME280;28729;49.838;8.650;2023-04-22T18:09:22;98989.47;;;17.94;50.82
43119;BME280;28729;49.838;8.650;2023-04-22T18:13:24;98991.38;;;17.85;51.23
43119;BME280;28729;49.838;8.650;2023-04-22T18:17:26;99007.31;;;17.70;52.40
43119;BME280;28729;49.838;8.650;2023-04-22T18:26:38;99022.13;;;17.21;56.17
43119;BME280;28729;49.838;8.650;2023-04-22T18:30:41;99030.19;;;17.08;56.95
43119;BME280;28729;49.838;8.650;2023-04-22T18:34:44;99034.13;;;16.94;57.41
43119;BME280;28729;49.838;8.650;2023-04-22T18:38:46;99037.72;;;16.80;59.28
43119;BME280;28729;49.838;8.650;2023-04-22T18:42:48;99050.81;;;16.66;61.94
43119;BME280;28729;49.838;8.650;2023-04-22T18:46:49;99045.63;;;16.59;62.71
43119;BME280;28729;49.838;8.650;2023-04-22T18:50:53;99047.91;;;16.57;62.99
43119;BME280;28729;49.838;8.650;2023-04-22T18:54:55;99056.25;;;16.57;62.68
43119;BME280;28729;49.838;8.650;2023-04-22T18:58:57;99053.88;;;16.51;64.80
43119;BME280;28729;49.838;8.650;2023-04-22T19:02:59;99066.34;;;16.53;63.74
43119;BME280;28729;49.838;8.650;2023-04-22T19:07:01;99069.22;;;16.48;65.34
43119;BME280;28729;49.838;8.650;2023-04-22T19:11:03;99074.25;;;16.46;65.70
43119;BME280;28729;49.838;8.650;2023-04-22T19:15:05;99079.09;;;16.40;66.92
43119;BME280;28729;49.838;8.650;2023-04-22T19:19:07;99081.97;;;16.35;67.58
43119;BME280;28729;49.838;8.650;2023-04-22T19:23:11;99078.44;;;16.30;68.30
43119;BME280;28729;49.838;8.650;2023-04-22T19:27:13;99076.06;;;16.23;69.22
43119;BME280;28729;49.838;8.650;2023-04-22T19:31:17;99073.47;;;16.13;72.93
43119;BME280;28729;49.838;8.650;2023-04-22T19:35:19;99069.28;;;15.97;74.84
43119;BME280;28729;49.838;8.650;2023-04-22T19:39:21;99067.31;;;15.83;76.06
43119;BME280;28729;49.838;8.650;2023-04-22T19:43:23;99067.97;;;15.75;75.67
43119;BME280;28729;49.838;8.650;2023-04-22T19:47:25;99075.56;;;15.69;76.53
43119;BME280;28729;49.838;8.650;2023-04-22T19:51:28;99074.78;;;15.64;77.14
43119;BME280;28729;49.838;8.650;2023-04-22T19:55:31;99071.34;;;15.53;80.07
43119;BME280;28729;49.838;8.650;2023-04-22T19:59:33;99077.19;;;15.52;79.69
43119;BME280;28729;49.838;8.650;2023-04-22T20:03:36;99082.81;;;15.46;81.01
43119;BME280;28729;49.838;8.650;2023-04-22T20:07:38;99084.28;;;15.44;81.38
43119;BME280;28729;49.838;8.650;2023-04-22T20:11:43;99085.22;;;15.34;84.68
43119;BME280;28729;49.838;8.650;2023-04-22T20:15:45;99083.63;;;15.28;84.53
43119;BME280;28729;49.838;8.650;2023-04-22T20:19:48;99085.97;;;15.21;84.63
43119;BME280;28729;49.838;8.650;2023-04-22T20:23:52;99088.34;;;15.09;87.71
43119;BME280;28729;49.838;8.650;2023-04-22T20:27:56;99094.78;;;15.04;88.47
43119;BME280;28729;49.838;8.650;2023-04-22T20:31:58;99094.09;;;14.93;91.05
43119;BME280;28729;49.838;8.650;2023-04-22T20:36:01;99104.53;;;14.77;94.55
43119;BME280;28729;49.838;8.650;2023-04-22T20:40:05;99099.69;;;14.64;96.87
43119;BME280;28729;49.838;8.650;2023-04-22T20:44:09;99102.06;;;14.47;100.00
43119;BME280;28729;49.838;8.650;2023-04-22T20:48:11;99096.94;;;14.30;100.00
43119;BME280;28729;49.838;8.650;2023-04-22T20:52:12;99103.19;;;14.17;100.00
43119;BME280;28729;49.838;8.650;2023-04-22T20:56:15;99093.31;;;14.05;100.00
43119;BME280;28729;49.838;8.650;2023-04-22T21:00:17;99099.47;;;13.97;100.00
43119;BME280;28729;49.838;8.650;2023-04-22T21:04:21;99101.75;;;13.90;100.00
43119;BME280;28729;49.838;8.650;2023-04-22T21:08:25;99109.84;;;13.81;100.00
43119;BME280;28729;49.838;8.650;2023-04-22T21:12:27;99106.31;;;13.71;100.00
43119;BME280;28729;49.838;8.650;2023-04-22T21:16:29;99102.50;;;13.61;100.00
43119;BME280;28729;49.838;8.650;2023-04-22T21:20:32;99102.56;;;13.51;100.00
43119;BME280;28729;49.838;8.650;2023-04-22T21:24:37;99104.28;;;13.42;100.00
43119;BME280;28729;49.838;8.650;2023-04-22T21:28:41;99107.63;;;13.39;100.00
43119;BME280;28729;49.838;8.650;2023-04-22T21:32:45;99095.44;;;13.40;100.00
43119;BME280;28729;49.838;8.650;2023-04-22T21:36:47;99104.34;;;13.32;100.00